createdAt,value
2023-01-01T00:02:04.836Z,9.40
2023-01-01T00:05:32.314Z,6.20
2023-01-01T00:09:13.110Z,6.80
2023-01-01T00:12:40.389Z,6.80
2023-01-01T00:16:12.651Z,9.10
2023-01-01T00:19:39.947Z,7.70
2023-01-01T00:23:06.946Z,7.90
2023-01-01T00:26:35.586Z,10.80
2023-01-01T00:30:04.443Z,8.10
2023-01-01T00:33:31.598Z,7.10
2023-01-01T00:36:59.566Z,7.10
2023-01-01T00:40:26.738Z,8.20
2023-01-01T00:43:53.694Z,5.30
2023-01-01T00:47:20.540Z,8.50
2023-01-01T00:50:47.606Z,8.10
2023-01-01T00:54:14.459Z,7.60
2023-01-01T00:57:41.828Z,5.90
2023-01-01T01:01:09.487Z,5.70
2023-01-01T01:04:36.787Z,6.40
2023-01-01T01:08:03.695Z,3.80
2023-01-01T01:11:30.864Z,8.50
2023-01-01T01:14:57.721Z,4.80
2023-01-01T01:18:24.674Z,7.20
2023-01-01T01:21:52.583Z,9.20
2023-01-01T01:25:19.737Z,7.70
2023-01-01T01:28:50.086Z,8.00
2023-01-01T01:32:17.481Z,7.40
2023-01-01T01:35:51.313Z,7.30
2023-01-01T01:39:18.351Z,4.90
2023-01-01T01:42:48.665Z,6.80
2023-01-01T01:46:19.009Z,8.40
2023-01-01T01:49:47.474Z,5.80
2023-01-01T01:53:19.113Z,7.80
2023-01-01T01:56:51.776Z,6.20
2023-01-01T02:00:20.109Z,6.10
2023-01-01T02:03:52.961Z,11.20
2023-01-01T02:07:20.800Z,6.80
2023-01-01T02:10:47.750Z,4.90
2023-01-01T02:14:15.311Z,7.20
2023-01-01T02:17:53.745Z,5.70
2023-01-01T02:21:26.598Z,9.00
2023-01-01T02:25:06.432Z,6.20
2023-01-01T02:28:51.885Z,5.50
2023-01-01T02:32:22.389Z,6.40
2023-01-01T02:35:53.707Z,5.40
2023-01-01T02:39:23.772Z,7.20
2023-01-01T02:42:51.940Z,6.60
2023-01-01T02:49:52.634Z,6.90
2023-01-01T02:53:28.509Z,5.70
2023-01-01T02:57:06.291Z,5.40
2023-01-01T03:00:35.384Z,5.90
2023-01-01T03:04:13.006Z,6.80
2023-01-01T03:07:50.148Z,6.30
2023-01-01T03:11:19.950Z,5.70
2023-01-01T03:18:20.353Z,6.40
2023-01-01T03:21:51.849Z,9.50
2023-01-01T03:25:24.002Z,7.40
2023-01-01T03:28:57.139Z,10.60
2023-01-01T03:32:50.006Z,6.20
2023-01-01T03:36:20.497Z,8.10
2023-01-01T03:39:51.142Z,9.90
2023-01-01T03:43:23.795Z,8.30
2023-01-01T03:46:51.515Z,9.10
2023-01-01T03:50:19.093Z,8.90
2023-01-01T03:53:46.322Z,10.60
2023-01-01T03:57:21.131Z,11.80
2023-01-01T04:00:52.724Z,9.40
2023-01-01T04:04:20.706Z,10.10
2023-01-01T04:11:50.109Z,9.20
2023-01-01T04:15:17.443Z,10.70
2023-01-01T04:18:44.458Z,11.30
2023-01-01T04:22:11.480Z,10.50
2023-01-01T04:25:38.407Z,11.50
2023-01-01T04:29:05.288Z,8.70
2023-01-01T04:32:33.299Z,13.50
2023-01-01T04:36:07.410Z,10.80
2023-01-01T04:39:34.301Z,16.00
2023-01-01T04:43:01.657Z,10.30
2023-01-01T04:46:28.802Z,11.90
2023-01-01T04:49:55.680Z,12.50
2023-01-01T04:53:22.662Z,12.10
2023-01-01T04:56:49.454Z,11.50
2023-01-01T05:00:17.459Z,14.00
2023-01-01T05:03:44.547Z,12.50
2023-01-01T05:07:11.356Z,9.90
2023-01-01T05:10:38.234Z,10.40
2023-01-01T05:14:05.530Z,14.90
2023-01-01T05:17:32.337Z,10.60
2023-01-01T05:21:03.392Z,9.90
2023-01-01T05:24:31.499Z,11.20
2023-01-01T05:27:58.401Z,14.00
2023-01-01T05:31:27.337Z,12.70
2023-01-01T05:34:55.156Z,11.70
2023-01-01T05:38:22.464Z,9.70
2023-01-01T05:41:49.378Z,9.90
2023-01-01T05:45:16.410Z,10.60
2023-01-01T05:48:43.487Z,9.80
2023-01-01T05:52:10.550Z,10.60
2023-01-01T05:55:37.415Z,16.70
2023-01-01T05:59:05.488Z,9.80
2023-01-01T06:02:34.294Z,8.10
2023-01-01T06:06:06.321Z,11.00
2023-01-01T06:09:33.508Z,9.60
2023-01-01T06:13:00.621Z,11.30
2023-01-01T06:16:29.741Z,6.40
2023-01-01T06:19:56.668Z,11.70
2023-01-01T06:23:23.506Z,9.20
2023-01-01T06:26:50.334Z,8.10
2023-01-01T06:30:17.341Z,9.00
2023-01-01T06:33:44.773Z,7.60
2023-01-01T06:37:11.739Z,10.40
2023-01-01T06:40:38.609Z,6.20
2023-01-01T06:44:05.818Z,8.60
2023-01-01T06:47:36.352Z,7.50
2023-01-01T06:51:11.365Z,6.90
2023-01-01T06:54:38.295Z,8.10
2023-01-01T06:58:09.342Z,5.80
2023-01-01T07:01:44.454Z,8.80
2023-01-01T07:05:12.493Z,9.70
2023-01-01T07:08:39.617Z,6.60
2023-01-01T07:12:07.071Z,6.40
2023-01-01T07:15:34.422Z,6.20
2023-01-01T07:19:01.788Z,6.50
2023-01-01T07:22:29.198Z,8.90
2023-01-01T07:25:57.547Z,8.10
2023-01-01T07:29:24.843Z,5.70
2023-01-01T07:32:57.436Z,6.40
2023-01-01T07:36:24.518Z,5.30
2023-01-01T07:39:51.526Z,7.90
2023-01-01T07:43:18.467Z,10.80
2023-01-01T07:46:45.409Z,8.50
2023-01-01T07:50:18.350Z,7.40
2023-01-01T07:53:45.270Z,9.50
2023-01-01T07:57:12.357Z,8.30
2023-01-01T08:00:39.592Z,8.30
2023-01-01T08:04:06.734Z,9.70
2023-01-01T08:07:33.717Z,10.50
2023-01-01T08:11:04.440Z,9.80
2023-01-01T08:18:00.298Z,6.70
2023-01-01T08:21:27.609Z,6.60
2023-01-01T08:24:54.751Z,10.60
2023-01-01T08:28:21.607Z,9.10
2023-01-01T08:31:48.478Z,12.10
2023-01-01T08:35:15.664Z,8.80
2023-01-01T08:38:42.532Z,14.20
2023-01-01T08:42:12.401Z,7.70
2023-01-01T08:45:39.711Z,7.50
2023-01-01T08:49:06.956Z,12.70
2023-01-01T08:52:34.228Z,7.00
2023-01-01T08:56:03.938Z,7.40
2023-01-01T08:59:31.009Z,11.90
2023-01-01T09:02:58.104Z,10.50
2023-01-01T09:06:25.268Z,11.20
2023-01-01T09:09:52.344Z,10.80
2023-01-01T09:13:22.738Z,9.40
2023-01-01T09:16:49.854Z,12.00
2023-01-01T09:20:18.944Z,7.00
2023-01-01T09:23:45.962Z,7.10
2023-01-01T09:27:12.866Z,9.60
2023-01-01T09:30:39.785Z,17.40
2023-01-01T09:34:06.712Z,10.20
2023-01-01T09:37:34.620Z,11.30
2023-01-01T09:41:10.619Z,10.00
2023-01-01T09:45:00.325Z,10.60
2023-01-01T09:48:30.525Z,9.40
2023-01-01T09:52:01.798Z,8.20
2023-01-01T09:55:44.772Z,10.20
2023-01-01T09:59:13.327Z,13.10
2023-01-01T10:02:54.019Z,8.60
2023-01-01T10:06:27.312Z,9.40
2023-01-01T10:10:05.098Z,11.90
2023-01-01T10:13:39.153Z,14.50
2023-01-01T10:17:12.395Z,11.20
2023-01-01T10:20:44.163Z,9.90
2023-01-01T10:24:29.400Z,9.60
2023-01-01T10:28:01.112Z,9.00
2023-01-01T10:31:34.563Z,11.10
2023-01-01T10:35:03.543Z,7.40
2023-01-01T10:38:30.824Z,11.00
2023-01-01T10:42:01.619Z,25.60
2023-01-01T10:45:34.260Z,9.50
2023-01-01T10:49:12.182Z,13.60
2023-01-01T10:52:41.049Z,9.50
2023-01-01T10:56:11.790Z,8.20
2023-01-01T10:59:40.876Z,9.20
2023-01-01T11:03:21.211Z,11.00
2023-01-01T11:06:49.371Z,13.40
2023-01-01T11:10:21.304Z,12.00
2023-01-01T11:13:52.854Z,9.40
2023-01-01T11:17:24.979Z,10.60
2023-01-01T11:20:57.403Z,9.70
2023-01-01T11:24:27.004Z,10.70
2023-01-01T11:31:21.579Z,10.90
2023-01-01T11:34:54.963Z,9.90
2023-01-01T11:38:29.524Z,9.80
2023-01-01T11:41:59.388Z,10.20
2023-01-01T11:45:37.247Z,9.10
2023-01-01T11:49:13.853Z,10.10
2023-01-01T11:52:42.599Z,11.80
2023-01-01T11:56:14.110Z,11.00
2023-01-01T11:59:48.244Z,12.20
2023-01-01T12:03:33.322Z,9.30
2023-01-01T12:07:06.478Z,13.00
2023-01-01T12:10:41.715Z,9.00
2023-01-01T12:14:18.483Z,9.50
2023-01-01T12:17:48.466Z,10.10
2023-01-01T12:21:23.667Z,9.60
2023-01-01T12:24:52.108Z,9.10
2023-01-01T12:28:35.159Z,10.10
2023-01-01T12:32:08.239Z,11.20
2023-01-01T12:35:45.176Z,9.40
2023-01-01T12:39:45.837Z,8.60
2023-01-01T12:43:15.921Z,11.20
2023-01-01T12:46:57.943Z,10.40
2023-01-01T12:50:36.916Z,8.10
2023-01-01T12:54:31.534Z,8.90
2023-01-01T12:58:05.884Z,12.80
2023-01-01T13:01:34.997Z,11.10
2023-01-01T13:05:09.012Z,9.70
2023-01-01T13:08:38.981Z,11.20
2023-01-01T13:12:09.259Z,15.20
2023-01-01T13:15:55.245Z,16.00
2023-01-01T13:19:35.062Z,14.80
2023-01-01T13:23:01.956Z,11.80
2023-01-01T13:26:42.759Z,13.30
2023-01-01T13:30:53.738Z,11.00
2023-01-01T13:34:50.843Z,18.10
2023-01-01T13:38:44.772Z,13.30
2023-01-01T13:42:41.669Z,16.60
2023-01-01T13:46:13.034Z,14.30
2023-01-01T13:49:59.900Z,20.10
2023-01-01T13:53:51.101Z,17.20
2023-01-01T13:57:33.462Z,19.30
2023-01-01T14:01:36.106Z,22.30
2023-01-01T14:05:06.906Z,22.40
2023-01-01T14:08:35.415Z,24.50
2023-01-01T14:12:16.086Z,20.40
2023-01-01T14:15:51.243Z,21.20
2023-01-01T14:19:18.303Z,20.40
2023-01-01T14:22:47.014Z,21.30
2023-01-01T14:26:16.675Z,19.10
2023-01-01T14:33:25.299Z,22.20
2023-01-01T14:36:56.621Z,20.90
2023-01-01T14:40:29.580Z,19.80
2023-01-01T14:43:59.432Z,18.20
2023-01-01T14:47:30.131Z,16.00
2023-01-01T14:50:58.480Z,17.60
2023-01-01T14:54:32.461Z,17.20
2023-01-01T14:58:02.336Z,13.10
2023-01-01T15:01:29.769Z,18.30
2023-01-01T15:04:58.411Z,25.00
2023-01-01T15:08:27.034Z,18.60
2023-01-01T15:11:56.590Z,19.30
2023-01-01T15:15:44.294Z,19.40
2023-01-01T15:19:24.340Z,16.50
2023-01-01T15:22:52.949Z,15.90
2023-01-01T15:26:30.340Z,22.00
2023-01-01T15:29:57.888Z,25.40
2023-01-01T15:33:25.542Z,20.70
2023-01-01T15:36:54.433Z,20.00
2023-01-01T15:40:52.760Z,19.30
2023-01-01T15:44:29.330Z,17.60
2023-01-01T15:47:58.509Z,22.80
2023-01-01T15:51:28.417Z,25.60
2023-01-01T15:54:55.751Z,22.70
2023-01-01T15:58:31.872Z,25.70
2023-01-01T16:02:13.539Z,24.90
2023-01-01T16:05:50.314Z,20.80
2023-01-01T16:09:20.187Z,28.80
2023-01-01T16:12:47.030Z,32.90
2023-01-01T16:16:28.225Z,28.70
2023-01-01T16:19:56.389Z,27.30
2023-01-01T16:23:23.732Z,28.60
2023-01-01T16:26:50.897Z,21.50
2023-01-01T16:30:18.436Z,25.20
2023-01-01T16:33:46.308Z,23.00
2023-01-01T16:37:13.225Z,30.10
2023-01-01T16:40:40.495Z,31.20
2023-01-01T16:44:07.671Z,26.30
2023-01-01T16:47:34.600Z,27.20
2023-01-01T16:51:01.842Z,27.50
2023-01-01T16:54:28.974Z,23.70
2023-01-01T16:58:21.235Z,22.30
2023-01-01T17:01:44.886Z,28.10
2023-01-01T17:05:12.927Z,28.90
2023-01-01T17:08:40.793Z,25.60
2023-01-01T17:12:08.454Z,26.70
2023-01-01T17:15:35.860Z,29.30
2023-01-01T17:19:18.144Z,31.60
2023-01-01T17:22:46.150Z,25.90
2023-01-01T17:26:16.024Z,31.20
2023-01-01T17:29:43.005Z,33.80
2023-01-01T17:33:10.017Z,31.40
2023-01-01T17:36:36.892Z,27.10
2023-01-01T17:40:03.915Z,27.20
2023-01-01T17:43:34.921Z,38.60
2023-01-01T17:47:02.071Z,36.80
2023-01-01T17:50:29.852Z,36.80
2023-01-01T17:53:57.571Z,44.30
2023-01-01T17:57:25.392Z,38.90
2023-01-01T18:00:52.905Z,97.00
2023-01-01T18:04:20.793Z,112.20
2023-01-01T18:07:47.657Z,83.90
2023-01-01T18:11:14.920Z,103.10
2023-01-01T18:14:41.997Z,115.80
2023-01-01T18:18:08.895Z,94.40
2023-01-01T18:21:36.354Z,94.80
2023-01-01T18:25:03.357Z,87.20
2023-01-01T18:28:31.201Z,65.70
2023-01-01T18:31:58.182Z,79.20
2023-01-01T18:35:25.066Z,64.40
2023-01-01T18:39:00.573Z,50.90
2023-01-01T18:42:44.342Z,37.60
2023-01-01T18:46:12.429Z,44.40
2023-01-01T18:49:40.743Z,35.80
2023-01-01T18:53:19.302Z,41.00
2023-01-01T18:56:48.107Z,40.70
2023-01-01T19:00:24.170Z,37.50
2023-01-01T19:03:53.707Z,46.60
2023-01-01T19:07:21.220Z,49.50
2023-01-01T19:10:50.618Z,44.10
2023-01-01T19:14:20.010Z,58.50
2023-01-01T19:17:47.489Z,37.80
2023-01-01T19:21:22.531Z,34.00
2023-01-01T19:24:49.479Z,32.90
2023-01-01T19:28:39.414Z,42.30
2023-01-01T19:32:06.982Z,45.50
2023-01-01T19:35:33.857Z,43.10
2023-01-01T19:39:01.143Z,53.00
2023-01-01T19:42:28.447Z,47.10
2023-01-01T19:45:55.422Z,49.20
2023-01-01T19:49:22.236Z,53.60
2023-01-01T19:52:49.230Z,52.50
2023-01-01T19:56:16.890Z,45.60
2023-01-01T19:59:43.818Z,36.20
2023-01-01T20:03:51.448Z,29.60
2023-01-01T20:06:57.782Z,31.30
2023-01-01T20:10:25.167Z,26.90
2023-01-01T20:13:52.517Z,29.60
2023-01-01T20:17:19.808Z,26.70
2023-01-01T20:21:00.671Z,33.60
2023-01-01T20:24:27.865Z,31.00
2023-01-01T20:28:12.443Z,31.30
2023-01-01T20:31:40.530Z,35.40
2023-01-01T20:35:08.606Z,40.90
2023-01-01T20:38:40.019Z,35.40
2023-01-01T20:42:08.090Z,39.50
2023-01-01T20:45:35.055Z,41.20
2023-01-01T20:49:02.031Z,43.40
2023-01-01T20:52:29.850Z,38.50
2023-01-01T20:55:56.730Z,36.30
2023-01-01T20:59:35.396Z,38.90
2023-01-01T21:03:04.336Z,37.90
2023-01-01T21:06:31.399Z,34.20
2023-01-01T21:09:58.287Z,31.50
2023-01-01T21:13:25.781Z,28.90
2023-01-01T21:16:53.016Z,29.00
2023-01-01T21:20:20.393Z,28.20
2023-01-01T21:23:47.842Z,28.80
2023-01-01T21:27:19.073Z,24.20
2023-01-01T21:30:51.773Z,27.50
2023-01-01T21:34:38.456Z,25.30
2023-01-01T21:38:17.451Z,24.10
2023-01-01T21:41:44.506Z,25.00
2023-01-01T21:45:19.333Z,27.90
2023-01-01T21:48:56.396Z,28.40
2023-01-01T21:52:26.064Z,34.80
2023-01-01T21:59:30.373Z,29.50
2023-01-01T22:02:57.291Z,28.60
2023-01-01T22:06:24.440Z,22.30
2023-01-01T22:09:52.428Z,28.10
2023-01-01T22:13:20.830Z,24.00
2023-01-01T22:16:52.453Z,23.30
2023-01-01T22:20:24.165Z,23.80
2023-01-01T22:23:55.754Z,25.20
2023-01-01T22:27:30.188Z,21.80
2023-01-01T22:31:01.096Z,24.70
2023-01-01T22:34:28.220Z,26.40
2023-01-01T22:37:56.641Z,30.30
2023-01-01T22:41:23.951Z,23.10
2023-01-01T22:45:00.538Z,24.40
2023-01-01T22:48:33.692Z,24.00
2023-01-01T22:52:01.767Z,21.50
2023-01-01T22:55:28.893Z,25.50
2023-01-01T22:58:57.630Z,20.80
2023-01-01T23:02:24.982Z,23.80
2023-01-01T23:05:53.058Z,25.50
2023-01-01T23:09:20.138Z,23.50
2023-01-01T23:12:47.267Z,26.50
2023-01-01T23:16:14.363Z,28.20
2023-01-01T23:19:41.379Z,29.50
2023-01-01T23:23:08.330Z,24.10
2023-01-01T23:26:35.435Z,31.80
2023-01-01T23:30:03.686Z,28.90
2023-01-01T23:33:32.615Z,28.60
2023-01-01T23:36:59.863Z,24.50
2023-01-01T23:40:27.078Z,29.40
2023-01-01T23:43:53.985Z,23.60
2023-01-01T23:47:21.168Z,27.60
2023-01-01T23:50:48.865Z,26.30
2023-01-01T23:54:15.910Z,24.30
2023-01-01T23:57:42.873Z,27.20
